createdAt,value
2023-02-22T00:02:34.219Z,7.70
2023-02-22T00:05:20.986Z,7.71
2023-02-22T00:08:09.196Z,7.72
2023-02-22T00:10:56.915Z,7.71
2023-02-22T00:13:44.899Z,7.68
2023-02-22T00:16:31.691Z,7.68
2023-02-22T00:19:17.697Z,7.66
2023-02-22T00:22:03.540Z,7.65
2023-02-22T00:24:50.102Z,7.66
2023-02-22T00:27:37.797Z,7.65
2023-02-22T00:30:26.555Z,7.63
2023-02-22T00:33:13.086Z,7.65
2023-02-22T00:35:59.203Z,7.66
2023-02-22T00:38:46.778Z,7.63
2023-02-22T00:41:34.223Z,7.64
2023-02-22T00:44:23.618Z,7.63
2023-02-22T00:47:09.726Z,7.62
2023-02-22T00:49:55.683Z,7.60
2023-02-22T00:52:41.695Z,7.58
2023-02-22T00:55:28.278Z,7.57
2023-02-22T00:58:14.659Z,7.55
2023-02-22T01:01:01.978Z,7.54
2023-02-22T01:03:48.956Z,7.49
2023-02-22T01:06:36.020Z,7.47
2023-02-22T01:09:22.006Z,7.46
2023-02-22T01:12:08.536Z,7.45
2023-02-22T01:14:56.973Z,7.42
2023-02-22T01:17:44.215Z,7.40
2023-02-22T01:20:30.305Z,7.39
2023-02-22T01:23:17.259Z,7.37
2023-02-22T01:26:05.555Z,7.35
2023-02-22T01:28:51.610Z,7.33
2023-02-22T01:31:37.708Z,7.33
2023-02-22T01:34:25.934Z,7.31
2023-02-22T01:37:11.935Z,7.28
2023-02-22T01:39:58.188Z,7.28
2023-02-22T01:42:44.720Z,7.26
2023-02-22T01:45:39.951Z,7.25
2023-02-22T01:48:30.940Z,7.24
2023-02-22T01:51:19.061Z,7.20
2023-02-22T01:54:06.981Z,7.19
2023-02-22T01:56:55.296Z,7.19
2023-02-22T01:59:41.510Z,7.18
2023-02-22T02:02:27.702Z,7.18
2023-02-22T02:05:13.720Z,7.16
2023-02-22T02:08:03.370Z,7.15
2023-02-22T02:10:49.873Z,7.12
2023-02-22T02:13:36.161Z,7.07
2023-02-22T02:16:22.769Z,7.01
2023-02-22T02:19:10.314Z,6.95
2023-02-22T02:22:14.362Z,6.90
2023-02-22T02:25:11.115Z,6.80
2023-02-22T02:28:10.261Z,6.74
2023-02-22T02:31:04.476Z,6.68
2023-02-22T02:33:52.630Z,6.59
2023-02-22T02:36:40.690Z,6.51
2023-02-22T02:39:27.168Z,6.42
2023-02-22T02:42:13.730Z,6.36
2023-02-22T02:45:03.537Z,6.27
2023-02-22T02:47:51.326Z,6.16
2023-02-22T02:50:41.509Z,6.09
2023-02-22T02:53:29.758Z,5.98
2023-02-22T02:56:15.929Z,5.90
2023-02-22T02:59:01.568Z,5.84
2023-02-22T03:01:49.948Z,5.75
2023-02-22T03:04:43.382Z,5.68
2023-02-22T03:07:34.378Z,5.61
2023-02-22T03:10:22.319Z,5.52
2023-02-22T03:13:10.096Z,5.47
2023-02-22T03:15:56.997Z,5.40
2023-02-22T03:18:45.304Z,5.31
2023-02-22T03:21:33.534Z,5.23
2023-02-22T03:24:22.240Z,5.18
2023-02-22T03:27:10.079Z,5.09
2023-02-22T03:30:00.266Z,5.02
2023-02-22T03:32:49.278Z,4.95
2023-02-22T03:35:36.749Z,4.89
2023-02-22T03:38:22.714Z,4.84
2023-02-22T03:41:10.469Z,4.77
2023-02-22T03:43:57.095Z,4.71
2023-02-22T03:46:43.104Z,4.66
2023-02-22T03:49:32.532Z,4.58
2023-02-22T03:52:18.439Z,4.53
2023-02-22T03:55:04.546Z,4.47
2023-02-22T03:57:52.128Z,4.36
2023-02-22T04:00:38.104Z,4.33
2023-02-22T04:03:24.414Z,4.30
2023-02-22T04:06:11.906Z,4.24
2023-02-22T04:08:58.729Z,4.20
2023-02-22T04:11:44.589Z,4.17
2023-02-22T04:14:32.665Z,4.10
2023-02-22T04:17:19.086Z,4.05
2023-02-22T04:20:07.130Z,4.00
2023-02-22T04:23:02.148Z,3.94
2023-02-22T04:25:50.787Z,3.90
2023-02-22T04:28:37.361Z,3.85
2023-02-22T04:31:30.014Z,3.80
2023-02-22T04:34:18.215Z,3.77
2023-02-22T04:37:04.505Z,3.74
2023-02-22T04:39:50.370Z,3.63
2023-02-22T04:42:37.091Z,3.61
2023-02-22T04:45:23.175Z,3.54
2023-02-22T04:48:10.298Z,3.49
2023-02-22T04:50:56.690Z,3.44
2023-02-22T04:53:43.553Z,3.39
2023-02-22T04:56:30.609Z,3.38
2023-02-22T04:59:16.766Z,3.41
2023-02-22T05:02:05.901Z,3.37
2023-02-22T05:04:53.379Z,3.36
2023-02-22T05:07:39.075Z,3.32
2023-02-22T05:10:25.671Z,3.31
2023-02-22T05:13:11.862Z,3.31
2023-02-22T05:15:57.666Z,3.28
2023-02-22T05:18:44.021Z,3.26
2023-02-22T05:21:31.072Z,3.25
2023-02-22T05:24:16.974Z,3.22
2023-02-22T05:27:02.863Z,3.22
2023-02-22T05:29:48.571Z,3.19
2023-02-22T05:32:35.126Z,3.16
2023-02-22T05:35:21.409Z,3.14
2023-02-22T05:38:08.809Z,3.14
2023-02-22T05:40:54.645Z,3.10
2023-02-22T05:43:40.773Z,3.08
2023-02-22T05:46:26.802Z,3.06
2023-02-22T05:49:12.678Z,3.00
2023-02-22T05:51:59.756Z,2.94
2023-02-22T05:54:47.109Z,2.96
2023-02-22T05:57:33.018Z,2.92
2023-02-22T06:00:23.085Z,2.89
2023-02-22T06:03:10.487Z,2.85
2023-02-22T06:05:58.860Z,2.83
2023-02-22T06:08:44.650Z,2.85
2023-02-22T06:11:31.871Z,2.80
2023-02-22T06:14:17.834Z,2.77
2023-02-22T06:17:05.318Z,2.75
2023-02-22T06:19:51.459Z,2.71
2023-02-22T06:22:37.583Z,2.66
2023-02-22T06:25:24.917Z,2.64
2023-02-22T06:28:12.068Z,2.62
2023-02-22T06:30:57.847Z,2.58
2023-02-22T06:33:43.681Z,2.58
2023-02-22T06:36:29.621Z,2.56
2023-02-22T06:39:16.091Z,2.52
2023-02-22T06:42:02.706Z,2.53
2023-02-22T06:44:51.743Z,2.51
2023-02-22T06:47:41.507Z,2.52
2023-02-22T06:50:29.266Z,2.50
2023-02-22T06:53:15.235Z,2.52
2023-02-22T06:56:01.047Z,2.52
2023-02-22T06:58:46.802Z,2.54
2023-02-22T07:01:33.933Z,2.56
2023-02-22T07:04:19.672Z,2.57
2023-02-22T07:07:06.393Z,2.58
2023-02-22T07:09:52.637Z,2.61
2023-02-22T07:12:38.419Z,2.69
2023-02-22T07:15:24.898Z,2.72
2023-02-22T07:18:12.465Z,2.79
2023-02-22T07:20:58.511Z,2.84
2023-02-22T07:23:49.198Z,2.92
2023-02-22T07:26:38.918Z,3.12
2023-02-22T07:29:25.023Z,3.20
2023-02-22T07:32:10.968Z,3.30
2023-02-22T07:34:58.689Z,3.42
2023-02-22T07:37:44.813Z,3.54
2023-02-22T07:40:30.792Z,3.63
2023-02-22T07:43:18.251Z,3.92
2023-02-22T07:46:05.433Z,4.06
2023-02-22T07:48:51.581Z,4.23
2023-02-22T07:51:38.730Z,4.55
2023-02-22T07:54:24.675Z,4.67
2023-02-22T07:57:10.533Z,4.93
2023-02-22T07:59:56.541Z,5.23
2023-02-22T08:02:42.585Z,5.52
2023-02-22T08:05:29.870Z,5.92
2023-02-22T08:08:19.770Z,6.13
2023-02-22T08:11:06.352Z,6.35
2023-02-22T08:13:52.130Z,6.57
2023-02-22T08:16:38.094Z,6.73
2023-02-22T08:19:24.170Z,6.85
2023-02-22T08:22:10.020Z,6.97
2023-02-22T08:24:57.277Z,7.10
2023-02-22T08:27:43.765Z,7.30
2023-02-22T08:30:30.229Z,7.39
2023-02-22T08:33:19.077Z,7.52
2023-02-22T08:36:05.935Z,7.61
2023-02-22T08:38:51.976Z,7.70
2023-02-22T08:41:39.102Z,7.81
2023-02-22T08:44:24.882Z,7.95
2023-02-22T08:47:11.230Z,8.07
2023-02-22T08:49:57.202Z,8.14
2023-02-22T08:52:43.404Z,8.24
2023-02-22T08:55:30.405Z,8.33
2023-02-22T08:58:17.798Z,8.41
2023-02-22T09:01:03.751Z,8.51
2023-02-22T09:03:49.729Z,8.57
2023-02-22T09:06:35.660Z,8.62
2023-02-22T09:09:21.681Z,8.71
2023-02-22T09:12:07.808Z,8.81
2023-02-22T09:14:55.278Z,8.91
2023-02-22T09:17:41.121Z,9.02
2023-02-22T09:20:26.862Z,9.13
2023-02-22T09:23:14.348Z,9.18
2023-02-22T09:26:00.519Z,9.30
2023-02-22T09:28:46.991Z,9.37
2023-02-22T09:31:36.749Z,9.48
2023-02-22T09:34:29.297Z,9.65
2023-02-22T09:37:15.453Z,9.74
2023-02-22T09:40:01.247Z,9.80
2023-02-22T09:42:48.687Z,9.80
2023-02-22T09:45:36.726Z,9.85
2023-02-22T09:48:25.216Z,9.93
2023-02-22T09:51:12.306Z,9.96
2023-02-22T09:53:59.176Z,10.12
2023-02-22T09:56:46.766Z,10.28
2023-02-22T09:59:33.169Z,10.36
2023-02-22T10:02:22.747Z,10.46
2023-02-22T10:05:11.573Z,10.55
2023-02-22T10:07:59.298Z,10.72
2023-02-22T10:10:46.250Z,10.82
2023-02-22T10:13:34.613Z,11.00
2023-02-22T10:16:22.182Z,11.00
2023-02-22T10:19:11.254Z,11.02
2023-02-22T10:22:01.323Z,11.13
2023-02-22T10:24:50.631Z,11.10
2023-02-22T10:27:38.367Z,11.15
2023-02-22T10:30:25.897Z,11.17
2023-02-22T10:33:14.401Z,11.22
2023-02-22T10:36:00.467Z,11.18
2023-02-22T10:38:49.601Z,11.33
2023-02-22T10:41:35.641Z,11.42
2023-02-22T10:44:21.465Z,11.43
2023-02-22T10:47:08.285Z,11.59
2023-02-22T10:49:55.790Z,11.77
2023-02-22T10:52:41.821Z,11.81
2023-02-22T10:55:28.898Z,11.86
2023-02-22T10:58:14.810Z,12.02
2023-02-22T11:01:00.531Z,12.17
2023-02-22T11:03:46.740Z,12.22
2023-02-22T11:06:32.907Z,12.38
2023-02-22T11:09:22.419Z,12.41
2023-02-22T11:12:10.296Z,12.49
2023-02-22T11:14:56.181Z,12.73
2023-02-22T11:17:42.009Z,12.77
2023-02-22T11:20:28.512Z,13.14
2023-02-22T11:23:14.552Z,13.22
2023-02-22T11:26:02.251Z,13.45
2023-02-22T11:28:50.355Z,13.43
2023-02-22T11:31:36.409Z,13.38
2023-02-22T11:34:30.270Z,13.18
2023-02-22T11:37:17.410Z,13.41
2023-02-22T11:40:13.873Z,13.62
2023-02-22T11:43:08.233Z,13.77
2023-02-22T11:46:03.940Z,13.81
2023-02-22T11:48:56.959Z,14.02
2023-02-22T11:51:45.216Z,14.27
2023-02-22T11:54:49.015Z,14.36
2023-02-22T11:57:38.631Z,14.64
2023-02-22T12:00:27.016Z,14.73
2023-02-22T12:03:18.564Z,15.05
2023-02-22T12:06:12.430Z,15.17
2023-02-22T12:09:01.500Z,14.98
2023-02-22T12:11:50.792Z,15.16
2023-02-22T12:14:39.435Z,14.91
2023-02-22T12:17:28.840Z,14.71
2023-02-22T12:20:21.556Z,14.48
2023-02-22T12:23:09.659Z,14.65
2023-02-22T12:25:58.433Z,14.53
2023-02-22T12:28:45.210Z,14.46
2023-02-22T12:31:33.714Z,14.49
2023-02-22T12:34:24.835Z,14.52
2023-02-22T12:37:14.938Z,14.35
2023-02-22T12:40:02.312Z,14.45
2023-02-22T12:42:48.570Z,14.45
2023-02-22T12:45:35.660Z,14.41
2023-02-22T12:48:31.325Z,14.44
2023-02-22T12:51:22.584Z,14.27
2023-02-22T12:54:12.296Z,14.36
2023-02-22T12:57:00.018Z,14.27
2023-02-22T12:59:47.604Z,14.39
2023-02-22T13:02:34.360Z,14.49
2023-02-22T13:05:20.749Z,14.41
2023-02-22T13:08:11.207Z,14.44
2023-02-22T13:10:59.873Z,14.55
2023-02-22T13:13:52.474Z,14.46
2023-02-22T13:16:40.950Z,14.58
2023-02-22T13:19:29.281Z,14.53
2023-02-22T13:22:17.045Z,14.71
2023-02-22T13:25:04.560Z,14.65
2023-02-22T13:27:53.280Z,14.66
2023-02-22T13:30:40.191Z,14.65
2023-02-22T13:33:30.123Z,14.56
2023-02-22T13:36:25.994Z,14.51
2023-02-22T13:39:19.954Z,14.64
2023-02-22T13:42:22.411Z,14.59
2023-02-22T13:45:27.898Z,14.52
2023-02-22T13:48:21.087Z,14.64
2023-02-22T13:51:09.528Z,14.68
2023-02-22T13:53:56.429Z,14.66
2023-02-22T13:56:42.800Z,14.56
2023-02-22T13:59:30.470Z,14.60
2023-02-22T14:02:33.106Z,14.52
2023-02-22T14:05:37.856Z,14.34
2023-02-22T14:08:45.493Z,14.31
2023-02-22T14:11:54.005Z,14.32
2023-02-22T14:14:41.385Z,14.25
2023-02-22T14:17:27.583Z,14.40
2023-02-22T14:20:31.017Z,14.45
2023-02-22T14:23:30.112Z,14.33
2023-02-22T14:26:18.011Z,14.21
2023-02-22T14:29:14.970Z,14.23
2023-02-22T14:32:02.764Z,14.29
2023-02-22T14:34:51.098Z,14.34
2023-02-22T14:37:37.849Z,14.21
2023-02-22T14:40:26.465Z,14.13
2023-02-22T14:43:13.853Z,14.10
2023-02-22T14:46:01.216Z,14.14
2023-02-22T14:48:47.555Z,14.05
2023-02-22T14:51:36.996Z,14.04
2023-02-22T14:54:25.779Z,13.86
2023-02-22T14:57:15.576Z,13.85
2023-02-22T15:00:08.088Z,13.81
2023-02-22T15:02:57.253Z,13.85
2023-02-22T15:05:43.302Z,13.84
2023-02-22T15:08:29.388Z,13.77
2023-02-22T15:11:20.936Z,13.80
2023-02-22T15:14:25.263Z,13.75
2023-02-22T15:17:13.630Z,13.65
2023-02-22T15:20:00.024Z,13.64
2023-02-22T15:22:45.951Z,13.62
2023-02-22T15:25:31.781Z,13.61
2023-02-22T15:28:17.862Z,13.54
2023-02-22T15:31:18.859Z,13.44
2023-02-22T15:34:16.840Z,13.42
2023-02-22T15:37:06.013Z,13.36
2023-02-22T15:39:59.553Z,13.31
2023-02-22T15:42:46.432Z,13.28
2023-02-22T15:45:32.689Z,13.22
2023-02-22T15:48:19.124Z,13.10
2023-02-22T15:51:09.214Z,13.04
2023-02-22T15:53:54.998Z,12.97
2023-02-22T15:56:40.849Z,12.92
2023-02-22T15:59:30.280Z,12.85
2023-02-22T16:02:30.254Z,12.75
2023-02-22T16:05:18.273Z,12.61
2023-02-22T16:08:07.883Z,12.50
2023-02-22T16:10:54.686Z,12.40
2023-02-22T16:13:41.620Z,12.29
2023-02-22T16:16:31.278Z,12.13
2023-02-22T16:19:25.549Z,12.03
2023-02-22T16:22:26.601Z,11.90
2023-02-22T16:25:16.434Z,11.75
2023-02-22T16:28:03.047Z,11.63
2023-02-22T16:30:57.379Z,11.51
2023-02-22T16:33:45.565Z,11.40
2023-02-22T16:36:39.652Z,11.21
2023-02-22T16:39:27.005Z,11.13
2023-02-22T16:42:19.886Z,11.01
2023-02-22T16:45:06.341Z,10.88
2023-02-22T16:47:53.643Z,10.77
2023-02-22T16:50:39.442Z,10.66
2023-02-22T16:53:26.404Z,10.56
2023-02-22T16:56:12.859Z,10.45
2023-02-22T16:59:01.291Z,10.37
2023-02-22T17:01:47.446Z,10.24
2023-02-22T17:04:33.219Z,10.16
2023-02-22T17:07:20.404Z,10.04
2023-02-22T17:10:07.015Z,9.95
2023-02-22T17:12:53.198Z,9.86
2023-02-22T17:15:41.139Z,9.78
2023-02-22T17:18:28.682Z,9.69
2023-02-22T17:21:16.521Z,9.61
2023-02-22T17:24:02.658Z,9.53
2023-02-22T17:26:48.925Z,9.47
2023-02-22T17:29:34.768Z,9.39
2023-02-22T17:32:21.931Z,9.30
2023-02-22T17:35:07.996Z,9.24
2023-02-22T17:37:53.872Z,9.17
2023-02-22T17:40:40.486Z,9.12
2023-02-22T17:43:27.690Z,9.05
2023-02-22T17:46:13.774Z,8.98
2023-02-22T17:49:01.797Z,8.90
2023-02-22T17:51:49.808Z,8.84
2023-02-22T17:54:35.749Z,8.77
2023-02-22T17:57:21.548Z,8.71
2023-02-22T18:00:12.376Z,8.66
2023-02-22T18:03:02.162Z,8.59
2023-02-22T18:05:49.880Z,8.54
2023-02-22T18:08:35.730Z,8.46
2023-02-22T18:11:26.033Z,8.41
2023-02-22T18:14:12.280Z,8.39
2023-02-22T18:16:58.263Z,8.32
2023-02-22T18:19:44.195Z,8.24
2023-02-22T18:22:31.676Z,8.16
2023-02-22T18:25:18.175Z,8.13
2023-02-22T18:28:04.624Z,8.09
2023-02-22T18:30:53.366Z,8.04
2023-02-22T18:33:41.111Z,7.99
2023-02-22T18:36:27.662Z,7.95
2023-02-22T18:39:15.162Z,7.90
2023-02-22T18:42:00.960Z,7.87
2023-02-22T18:44:47.317Z,7.83
2023-02-22T18:47:38.021Z,7.79
2023-02-22T18:50:23.936Z,7.74
2023-02-22T18:53:09.919Z,7.69
2023-02-22T18:55:57.158Z,7.64
2023-02-22T18:58:43.662Z,7.56
2023-02-22T19:01:29.862Z,7.53
2023-02-22T19:04:18.045Z,7.49
2023-02-22T19:07:04.213Z,7.45
2023-02-22T19:09:51.207Z,7.39
2023-02-22T19:12:38.332Z,7.35
2023-02-22T19:15:24.985Z,7.31
2023-02-22T19:18:10.861Z,7.28
2023-02-22T19:20:58.477Z,7.26
2023-02-22T19:23:46.223Z,7.19
2023-02-22T19:26:32.407Z,7.14
2023-02-22T19:29:22.088Z,7.07
2023-02-22T19:32:08.720Z,7.03
2023-02-22T19:35:01.854Z,7.03
2023-02-22T19:37:48.038Z,6.99
2023-02-22T19:40:33.807Z,6.96
2023-02-22T19:43:19.588Z,6.97
2023-02-22T19:46:07.520Z,6.93
2023-02-22T19:48:54.725Z,6.94
2023-02-22T19:51:40.884Z,6.93
2023-02-22T19:54:27.389Z,6.90
2023-02-22T19:57:14.149Z,6.92
2023-02-22T20:00:00.067Z,6.88
2023-02-22T20:02:47.124Z,6.86
2023-02-22T20:05:33.383Z,6.86
2023-02-22T20:08:19.568Z,6.83
2023-02-22T20:11:07.094Z,6.82
2023-02-22T20:13:55.369Z,6.81
2023-02-22T20:16:41.255Z,6.78
2023-02-22T20:19:28.807Z,6.77
2023-02-22T20:22:14.593Z,6.72
2023-02-22T20:25:00.375Z,6.68
2023-02-22T20:27:46.444Z,6.67
2023-02-22T20:30:33.529Z,6.65
2023-02-22T20:33:19.846Z,6.62
2023-02-22T20:36:08.144Z,6.57
2023-02-22T20:38:55.997Z,6.56
2023-02-22T20:41:42.467Z,6.51
2023-02-22T20:44:28.435Z,6.51
2023-02-22T20:47:14.260Z,6.50
2023-02-22T20:50:00.122Z,6.47
2023-02-22T20:52:47.308Z,6.43
2023-02-22T20:55:33.403Z,6.41
2023-02-22T20:58:19.783Z,6.41
2023-02-22T21:01:06.008Z,6.38
2023-02-22T21:03:52.161Z,6.36
2023-02-22T21:06:38.848Z,6.34
2023-02-22T21:09:26.050Z,6.30
2023-02-22T21:12:13.467Z,6.25
2023-02-22T21:14:59.453Z,6.23
2023-02-22T21:17:47.445Z,6.20
2023-02-22T21:20:35.298Z,6.17
2023-02-22T21:23:21.412Z,6.13
2023-02-22T21:26:10.591Z,6.09
2023-02-22T21:28:56.893Z,6.03
2023-02-22T21:31:43.083Z,5.99
2023-02-22T21:34:29.707Z,5.95
2023-02-22T21:37:18.054Z,5.90
2023-02-22T21:40:09.599Z,5.88
2023-02-22T21:42:56.934Z,5.86
2023-02-22T21:45:42.991Z,5.83
2023-02-22T21:48:28.911Z,5.81
2023-02-22T21:51:15.743Z,5.78
2023-02-22T21:54:03.089Z,5.72
2023-02-22T21:56:48.873Z,5.68
2023-02-22T21:59:36.069Z,5.65
2023-02-22T22:02:22.236Z,5.55
2023-02-22T22:05:09.078Z,5.54
2023-02-22T22:07:54.828Z,5.53
2023-02-22T22:10:44.970Z,5.50
2023-02-22T22:13:45.464Z,5.49
2023-02-22T22:16:34.425Z,5.44
2023-02-22T22:19:22.854Z,5.40
2023-02-22T22:22:28.283Z,5.39
2023-02-22T22:25:25.349Z,5.34
2023-02-22T22:28:14.028Z,5.31
2023-02-22T22:31:06.588Z,5.28
2023-02-22T22:33:58.393Z,5.23
2023-02-22T22:36:51.113Z,5.20
2023-02-22T22:39:41.702Z,5.18
2023-02-22T22:42:38.680Z,5.14
2023-02-22T22:45:30.812Z,5.12
2023-02-22T22:48:20.148Z,5.05
2023-02-22T22:51:09.966Z,5.04
2023-02-22T22:54:01.892Z,5.00
2023-02-22T22:56:50.889Z,4.96
2023-02-22T22:59:39.599Z,4.93
2023-02-22T23:02:25.866Z,4.88
2023-02-22T23:05:12.853Z,4.84
2023-02-22T23:08:04.622Z,4.77
2023-02-22T23:10:50.629Z,4.75
2023-02-22T23:13:36.607Z,4.73
2023-02-22T23:16:23.173Z,4.71
2023-02-22T23:19:09.552Z,4.66
2023-02-22T23:21:55.912Z,4.64
2023-02-22T23:24:44.424Z,4.57
2023-02-22T23:27:30.301Z,4.55
2023-02-22T23:30:18.460Z,4.51
2023-02-22T23:33:04.631Z,4.49
2023-02-22T23:35:50.342Z,4.48
2023-02-22T23:38:36.381Z,4.45
2023-02-22T23:41:25.054Z,4.43
2023-02-22T23:44:16.674Z,4.44
2023-02-22T23:47:03.758Z,4.42
2023-02-22T23:49:50.155Z,4.40
2023-02-22T23:52:37.321Z,4.37
2023-02-22T23:55:23.668Z,4.40
2023-02-22T23:58:11.167Z,4.39
